^^
Saratoga-Weather Station Historical Data
Daily Summary for February 27, 2021 Units:  Both    English   Metric
Daily Weekly Monthly Yearly Custom
  High: Low: Average:
Temperature: 64.2 °F /  17.9 °C 46 °F /  7.8 °C 54 °F /  12.2 °C
Dew Point: 50.5 °F /  10.3 °C 44.4 °F /  6.9 °C 47.1 °F /  8.4 °C
Humidity: 95% 55% 79%
Wind Speed: 13mph /  20.9km/h - 4mph /  6.4km/h
Wind Gust: 17mph /  27.4km/h - -
Wind- - West
Pressure: 30.2 in /  1021.0 hPa 30 in /  1016.3 hPa -
Precipitation: 0 in /  0.0 mm    
Historical Graphs
 
 
Tabular Data for February 27, 2021
Time Temperature Dew Point Pressure Wind Wind Speed Wind Gust Humidity Rainfall Rate (Hourly) solar
00:01 48.2 °F /  9 °C 46 °F /  7.8 °C 30in /  1016.3hPa West 4mph /  6.4km/h 10mph /  16.1km/h 92% 0in /  0.0mm 0 W/m2
00:06 48 °F /  8.9 °C 45.9 °F /  7.7 °C 30in /  1016.3hPa WSW 4mph /  6.4km/h 9mph /  14.5km/h 92% 0in /  0.0mm 0 W/m2
00:11 48 °F /  8.9 °C 45.9 °F /  7.7 °C 30in /  1016.3hPa WNW 2.9mph /  4.7km/h 10mph /  16.1km/h 92% 0in /  0.0mm 0 W/m2
00:16 48 °F /  8.9 °C 45.9 °F /  7.7 °C 30in /  1016.6hPa WNW 2.9mph /  4.7km/h 8mph /  12.9km/h 92% 0in /  0.0mm 0 W/m2
00:21 47.8 °F /  8.8 °C 45.7 °F /  7.6 °C 30in /  1016.3hPa West 0.9mph /  1.4km/h 8mph /  12.9km/h 92% 0in /  0.0mm 0 W/m2
00:26 47.8 °F /  8.8 °C 45.7 °F /  7.6 °C 30in /  1016.6hPa West 8.1mph /  13km/h 9mph /  14.5km/h 92% 0in /  0.0mm 0 W/m2
00:31 47.8 °F /  8.8 °C 45.7 °F /  7.6 °C 30in /  1016.6hPa West 2mph /  3.2km/h 7mph /  11.3km/h 92% 0in /  0.0mm 0 W/m2
00:36 47.8 °F /  8.8 °C 45.7 °F /  7.6 °C 30in /  1016.6hPa Calm   10mph /  16.1km/h 92% 0in /  0.0mm 0 W/m2
00:41 47.7 °F /  8.7 °C 45.5 °F /  7.5 °C 30in /  1016.6hPa WNW 2mph /  3.2km/h 6mph /  9.7km/h 92% 0in /  0.0mm 0 W/m2
00:46 47.7 °F /  8.7 °C 45.5 °F /  7.5 °C 30in /  1016.6hPa West 6.9mph /  11.1km/h 7mph /  11.3km/h 92% 0in /  0.0mm 0 W/m2
00:51 47.5 °F /  8.6 °C 45.3 °F /  7.4 °C 30in /  1016.6hPa SSE 8.9mph /  14.3km/h 9mph /  14.5km/h 92% 0in /  0.0mm 0 W/m2
00:56 47.5 °F /  8.6 °C 45.3 °F /  7.4 °C 30in /  1016.6hPa NW 2.9mph /  4.7km/h 9mph /  14.5km/h 92% 0in /  0.0mm 0 W/m2
01:01 47.1 °F /  8.4 °C 45.1 °F /  7.3 °C 30in /  1016.6hPa West 2.9mph /  4.7km/h 6mph /  9.7km/h 93% 0in /  0.0mm 0 W/m2
01:06 47.1 °F /  8.4 °C 45.1 °F /  7.3 °C 30in /  1016.6hPa WNW 2mph /  3.2km/h 8mph /  12.9km/h 93% 0in /  0.0mm 0 W/m2
01:11 47.1 °F /  8.4 °C 45.1 °F /  7.3 °C 30in /  1016.6hPa WSW 4.9mph /  7.9km/h 13mph /  20.9km/h 93% 0in /  0.0mm 0 W/m2
01:16 47.1 °F /  8.4 °C 45.1 °F /  7.3 °C 30in /  1016.6hPa NNW 2mph /  3.2km/h 9mph /  14.5km/h 93% 0in /  0.0mm 0 W/m2
01:21 46.9 °F /  8.3 °C 45 °F /  7.2 °C 30in /  1016.6hPa West 6.9mph /  11.1km/h 10mph /  16.1km/h 93% 0in /  0.0mm 0 W/m2
01:26 46.9 °F /  8.3 °C 45.3 °F /  7.4 °C 30in /  1016.6hPa West 2.9mph /  4.7km/h 7mph /  11.3km/h 94% 0in /  0.0mm 0 W/m2
01:31 46.9 °F /  8.3 °C 45 °F /  7.2 °C 30in /  1016.6hPa NW 4mph /  6.4km/h 4mph /  6.4km/h 93% 0in /  0.0mm 0 W/m2
01:36 46.9 °F /  8.3 °C 45 °F /  7.2 °C 30in /  1016.9hPa NW 2.9mph /  4.7km/h 8mph /  12.9km/h 93% 0in /  0.0mm 0 W/m2
01:41 46.8 °F /  8.2 °C 44.8 °F /  7.1 °C 30in /  1016.6hPa West 6mph /  9.7km/h 8mph /  12.9km/h 93% 0in /  0.0mm 0 W/m2
01:46 46.8 °F /  8.2 °C 44.8 °F /  7.1 °C 30in /  1016.9hPa NW 2mph /  3.2km/h 7mph /  11.3km/h 93% 0in /  0.0mm 0 W/m2
01:51 46.6 °F /  8.1 °C 45 °F /  7.2 °C 30in /  1016.9hPa SW 2.9mph /  4.7km/h 4mph /  6.4km/h 94% 0in /  0.0mm 0 W/m2
01:56 46.4 °F /  8 °C 44.8 °F /  7.1 °C 30in /  1016.9hPa West 8.1mph /  13km/h 10mph /  16.1km/h 94% 0in /  0.0mm 0 W/m2
02:01 46.2 °F /  7.9 °C 44.6 °F /  7 °C 30in /  1016.9hPa WNW 2.9mph /  4.7km/h 11mph /  17.7km/h 94% 0in /  0.0mm 0 W/m2
02:06 46.2 °F /  7.9 °C 44.6 °F /  7 °C 30in /  1016.9hPa WNW 2mph /  3.2km/h 7mph /  11.3km/h 94% 0in /  0.0mm 0 W/m2
02:11 46.4 °F /  8 °C 44.8 °F /  7.1 °C 30in /  1016.9hPa WSW 4mph /  6.4km/h 11mph /  17.7km/h 94% 0in /  0.0mm 0 W/m2
02:16 46.4 °F /  8 °C 44.8 °F /  7.1 °C 30in /  1016.9hPa WNW 2.9mph /  4.7km/h 8mph /  12.9km/h 94% 0in /  0.0mm 0 W/m2
02:21 46.4 °F /  8 °C 44.8 °F /  7.1 °C 30in /  1016.9hPa West 6mph /  9.7km/h 7mph /  11.3km/h 94% 0in /  0.0mm 0 W/m2
02:26 46.6 °F /  8.1 °C 45 °F /  7.2 °C 30in /  1016.9hPa WSW 6.9mph /  11.1km/h 7mph /  11.3km/h 94% 0in /  0.0mm 0 W/m2
02:31 46.6 °F /  8.1 °C 45 °F /  7.2 °C 30in /  1016.9hPa West 6mph /  9.7km/h 8mph /  12.9km/h 94% 0in /  0.0mm 0 W/m2
02:36 46.6 °F /  8.1 °C 45 °F /  7.2 °C 30in /  1016.9hPa WNW 2mph /  3.2km/h 6mph /  9.7km/h 94% 0in /  0.0mm 0 W/m2
02:41 46.8 °F /  8.2 °C 45.1 °F /  7.3 °C 30in /  1016.9hPa West 4mph /  6.4km/h 7mph /  11.3km/h 94% 0in /  0.0mm 0 W/m2
02:46 46.8 °F /  8.2 °C 45.1 °F /  7.3 °C 30in /  1016.9hPa WNW 2mph /  3.2km/h 6mph /  9.7km/h 94% 0in /  0.0mm 0 W/m2
02:51 46.8 °F /  8.2 °C 45.1 °F /  7.3 °C 30in /  1016.9hPa WNW 2.9mph /  4.7km/h 6mph /  9.7km/h 94% 0in /  0.0mm 0 W/m2
02:56 46.9 °F /  8.3 °C 45.3 °F /  7.4 °C 30in /  1016.9hPa WNW 0.9mph /  1.4km/h 4mph /  6.4km/h 94% 0in /  0.0mm 0 W/m2
03:01 46.9 °F /  8.3 °C 45.3 °F /  7.4 °C 30in /  1016.9hPa West 2mph /  3.2km/h 7mph /  11.3km/h 94% 0in /  0.0mm 0 W/m2
03:06 46.9 °F /  8.3 °C 45.3 °F /  7.4 °C 30in /  1016.9hPa SW 4.9mph /  7.9km/h 7mph /  11.3km/h 94% 0in /  0.0mm 0 W/m2
03:11 46.9 °F /  8.3 °C 45.3 °F /  7.4 °C 30in /  1016.9hPa West 2.9mph /  4.7km/h 3mph /  4.8km/h 94% 0in /  0.0mm 0 W/m2
03:16 46.8 °F /  8.2 °C 45.1 °F /  7.3 °C 30in /  1016.9hPa WNW 2mph /  3.2km/h 6mph /  9.7km/h 94% 0in /  0.0mm 0 W/m2
03:21 46.8 °F /  8.2 °C 44.8 °F /  7.1 °C 30in /  1016.9hPa West 2.9mph /  4.7km/h 3mph /  4.8km/h 93% 0in /  0.0mm 0 W/m2
03:26 46.8 °F /  8.2 °C 45.1 °F /  7.3 °C 30in /  1016.9hPa West 4mph /  6.4km/h 6mph /  9.7km/h 94% 0in /  0.0mm 0 W/m2
03:31 46.8 °F /  8.2 °C 45.1 °F /  7.3 °C 30in /  1016.9hPa WSW 2mph /  3.2km/h 5mph /  8km/h 94% 0in /  0.0mm 0 W/m2
03:36 46.8 °F /  8.2 °C 45.1 °F /  7.3 °C 30in /  1016.9hPa West 2.9mph /  4.7km/h 5mph /  8km/h 94% 0in /  0.0mm 0 W/m2
03:41 46.8 °F /  8.2 °C 45.1 °F /  7.3 °C 30in /  1016.9hPa Calm   6mph /  9.7km/h 94% 0in /  0.0mm 0 W/m2
03:46 46.8 °F /  8.2 °C 45.1 °F /  7.3 °C 30in /  1016.9hPa West 2mph /  3.2km/h 4mph /  6.4km/h 94% 0in /  0.0mm 0 W/m2
03:51 46.8 °F /  8.2 °C 45.1 °F /  7.3 °C 30in /  1017.3hPa WNW 2.9mph /  4.7km/h 4mph /  6.4km/h 94% 0in /  0.0mm 0 W/m2
03:56 46.9 °F /  8.3 °C 45.3 °F /  7.4 °C 30in /  1016.9hPa West 0.9mph /  1.4km/h 6mph /  9.7km/h 94% 0in /  0.0mm 0 W/m2
04:01 46.9 °F /  8.3 °C 45.3 °F /  7.4 °C 30in /  1016.9hPa West 0.9mph /  1.4km/h 2mph /  3.2km/h 94% 0in /  0.0mm 0 W/m2
04:06 46.9 °F /  8.3 °C 45.3 °F /  7.4 °C 30in /  1016.9hPa West 0.9mph /  1.4km/h 4mph /  6.4km/h 94% 0in /  0.0mm 0 W/m2
04:11 46.9 °F /  8.3 °C 45.3 °F /  7.4 °C 30in /  1016.9hPa West 2mph /  3.2km/h 4mph /  6.4km/h 94% 0in /  0.0mm 0 W/m2
04:16 46.9 °F /  8.3 °C 45.3 °F /  7.4 °C 30in /  1016.9hPa WSW 2.9mph /  4.7km/h 4mph /  6.4km/h 94% 0in /  0.0mm 0 W/m2
04:21 46.9 °F /  8.3 °C 45.3 °F /  7.4 °C 30in /  1016.9hPa WNW 0.9mph /  1.4km/h 2mph /  3.2km/h 94% 0in /  0.0mm 0 W/m2
04:26 46.9 °F /  8.3 °C 45.3 °F /  7.4 °C 30in /  1016.9hPa West 0.9mph /  1.4km/h 4mph /  6.4km/h 94% 0in /  0.0mm 0 W/m2
04:31 46.8 °F /  8.2 °C 45.1 °F /  7.3 °C 30in /  1016.9hPa WSW 4mph /  6.4km/h 10mph /  16.1km/h 94% 0in /  0.0mm 0 W/m2
04:36 46.8 °F /  8.2 °C 45.1 °F /  7.3 °C 30in /  1016.9hPa West 2.9mph /  4.7km/h 4mph /  6.4km/h 94% 0in /  0.0mm 0 W/m2
04:41 46.8 °F /  8.2 °C 45.1 °F /  7.3 °C 30in /  1016.9hPa SSW 4.9mph /  7.9km/h 6mph /  9.7km/h 94% 0in /  0.0mm 0 W/m2
04:46 46.6 °F /  8.1 °C 45 °F /  7.2 °C 30in /  1016.9hPa WNW 2.9mph /  4.7km/h 7mph /  11.3km/h 94% 0in /  0.0mm 0 W/m2
04:51 46.4 °F /  8 °C 44.8 °F /  7.1 °C 30in /  1016.9hPa West 6mph /  9.7km/h 7mph /  11.3km/h 94% 0in /  0.0mm 0 W/m2
04:56 46.2 °F /  7.9 °C 44.6 °F /  7 °C 30in /  1016.9hPa West 2.9mph /  4.7km/h 3mph /  4.8km/h 94% 0in /  0.0mm 0 W/m2
05:01 46.2 °F /  7.9 °C 44.6 °F /  7 °C 30in /  1016.9hPa West 6mph /  9.7km/h 6mph /  9.7km/h 94% 0in /  0.0mm 0 W/m2
05:06 46 °F /  7.8 °C 44.4 °F /  6.9 °C 30in /  1016.9hPa West 6mph /  9.7km/h 6mph /  9.7km/h 94% 0in /  0.0mm 0 W/m2
05:11 46 °F /  7.8 °C 44.4 °F /  6.9 °C 30in /  1016.9hPa West 8.1mph /  13km/h 10mph /  16.1km/h 94% 0in /  0.0mm 0 W/m2
05:16 46 °F /  7.8 °C 44.4 °F /  6.9 °C 30in /  1016.9hPa NW 4mph /  6.4km/h 9mph /  14.5km/h 94% 0in /  0.0mm 0 W/m2
05:21 46 °F /  7.8 °C 44.4 °F /  6.9 °C 30in /  1016.9hPa WNW 4.9mph /  7.9km/h 14mph /  22.5km/h 94% 0in /  0.0mm 0 W/m2
05:26 46 °F /  7.8 °C 44.4 °F /  6.9 °C 30in /  1017.3hPa WSW 6.9mph /  11.1km/h 10mph /  16.1km/h 94% 0in /  0.0mm 0 W/m2
05:31 46 °F /  7.8 °C 44.4 °F /  6.9 °C 30in /  1016.9hPa SW 4.9mph /  7.9km/h 11mph /  17.7km/h 94% 0in /  0.0mm 0 W/m2
05:36 46 °F /  7.8 °C 44.4 °F /  6.9 °C 30in /  1017.3hPa West 4mph /  6.4km/h 9mph /  14.5km/h 94% 0in /  0.0mm 0 W/m2
05:41 46 °F /  7.8 °C 44.4 °F /  6.9 °C 30in /  1017.3hPa WNW 2.9mph /  4.7km/h 7mph /  11.3km/h 94% 0in /  0.0mm 0 W/m2
05:46 46 °F /  7.8 °C 44.4 °F /  6.9 °C 30in /  1017.3hPa WNW 2.9mph /  4.7km/h 7mph /  11.3km/h 94% 0in /  0.0mm 5 W/m2
05:51 46 °F /  7.8 °C 44.4 °F /  6.9 °C 30in /  1017.3hPa WNW 4mph /  6.4km/h 4mph /  6.4km/h 94% 0in /  0.0mm 7 W/m2
05:56 46 °F /  7.8 °C 44.6 °F /  7 °C 30in /  1017.3hPa WSW 4.9mph /  7.9km/h 9mph /  14.5km/h 95% 0in /  0.0mm 9 W/m2
06:01 46.2 °F /  7.9 °C 44.8 °F /  7.1 °C 30in /  1017.3hPa West 4mph /  6.4km/h 14mph /  22.5km/h 95% 0in /  0.0mm 11 W/m2
06:06 46.2 °F /  7.9 °C 44.8 °F /  7.1 °C 30in /  1017.3hPa WSW 2mph /  3.2km/h 8mph /  12.9km/h 95% 0in /  0.0mm 14 W/m2
06:11 46.2 °F /  7.9 °C 44.8 °F /  7.1 °C 30in /  1017.3hPa West 6.9mph /  11.1km/h 11mph /  17.7km/h 95% 0in /  0.0mm 18 W/m2
06:16 46.2 °F /  7.9 °C 44.6 °F /  7 °C 30in /  1017.3hPa WNW 2.9mph /  4.7km/h 7mph /  11.3km/h 94% 0in /  0.0mm 14 W/m2
06:21 46.2 °F /  7.9 °C 44.6 °F /  7 °C 30.1in /  1017.6hPa WSW 4.9mph /  7.9km/h 10mph /  16.1km/h 94% 0in /  0.0mm 14 W/m2
06:26 46.2 °F /  7.9 °C 44.6 °F /  7 °C 30.1in /  1017.6hPa WNW 2mph /  3.2km/h 7mph /  11.3km/h 94% 0in /  0.0mm 19 W/m2
06:31 46.2 °F /  7.9 °C 44.6 °F /  7 °C 30.1in /  1017.6hPa WNW 2.9mph /  4.7km/h 10mph /  16.1km/h 94% 0in /  0.0mm 19 W/m2
06:36 46.2 °F /  7.9 °C 44.6 °F /  7 °C 30.1in /  1017.6hPa WNW 2.9mph /  4.7km/h 9mph /  14.5km/h 94% 0in /  0.0mm 18 W/m2
06:41 46.2 °F /  7.9 °C 44.6 °F /  7 °C 30.1in /  1017.6hPa West 6.9mph /  11.1km/h 8mph /  12.9km/h 94% 0in /  0.0mm 18 W/m2
06:46 46.2 °F /  7.9 °C 44.6 °F /  7 °C 30.1in /  1017.6hPa WSW 6mph /  9.7km/h 7mph /  11.3km/h 94% 0in /  0.0mm 23 W/m2
06:51 46.2 °F /  7.9 °C 44.6 °F /  7 °C 30.1in /  1017.6hPa West 6.9mph /  11.1km/h 10mph /  16.1km/h 94% 0in /  0.0mm 40 W/m2
06:56 46 °F /  7.8 °C 44.4 °F /  6.9 °C 30.1in /  1017.6hPa WNW 4mph /  6.4km/h 8mph /  12.9km/h 94% 0in /  0.0mm 37 W/m2
07:01 46.2 °F /  7.9 °C 44.6 °F /  7 °C 30.1in /  1018.0hPa WSW 2mph /  3.2km/h 10mph /  16.1km/h 94% 0in /  0.0mm 39 W/m2
07:06 46.2 °F /  7.9 °C 44.6 °F /  7 °C 30.1in /  1018.0hPa NW 2mph /  3.2km/h 8mph /  12.9km/h 94% 0in /  0.0mm 49 W/m2
07:11 46 °F /  7.8 °C 44.4 °F /  6.9 °C 30.1in /  1018.0hPa NW 4.9mph /  7.9km/h 9mph /  14.5km/h 94% 0in /  0.0mm 39 W/m2
07:16 46 °F /  7.8 °C 44.4 °F /  6.9 °C 30.1in /  1018.0hPa West 8.1mph /  13km/h 8mph /  12.9km/h 94% 0in /  0.0mm 49 W/m2
07:21 46 °F /  7.8 °C 44.4 °F /  6.9 °C 30.1in /  1018.0hPa WNW 0.9mph /  1.4km/h 6mph /  9.7km/h 94% 0in /  0.0mm 65 W/m2
07:26 46 °F /  7.8 °C 44.4 °F /  6.9 °C 30.1in /  1018.0hPa WSW 8.1mph /  13km/h 9mph /  14.5km/h 94% 0in /  0.0mm 74 W/m2
07:31 46 °F /  7.8 °C 44.4 °F /  6.9 °C 30.1in /  1018.0hPa West 2.9mph /  4.7km/h 8mph /  12.9km/h 94% 0in /  0.0mm 83 W/m2
07:36 46 °F /  7.8 °C 44.4 °F /  6.9 °C 30.1in /  1018.0hPa WNW 0.9mph /  1.4km/h 7mph /  11.3km/h 94% 0in /  0.0mm 90 W/m2
07:41 46.2 °F /  7.9 °C 44.6 °F /  7 °C 30.1in /  1018.0hPa West 2mph /  3.2km/h 4mph /  6.4km/h 94% 0in /  0.0mm 93 W/m2
07:46 46.6 °F /  8.1 °C 45 °F /  7.2 °C 30.1in /  1018.3hPa WNW 2mph /  3.2km/h 6mph /  9.7km/h 94% 0in /  0.0mm 97 W/m2
07:52 46.6 °F /  8.1 °C 44.6 °F /  7 °C 30.1in /  1018.3hPa SW 0.9mph /  1.4km/h 4mph /  6.4km/h 93% 0in /  0.0mm 104 W/m2
07:57 46.8 °F /  8.2 °C 44.8 °F /  7.1 °C 30.1in /  1018.0hPa Calm   2mph /  3.2km/h 93% 0in /  0.0mm 113 W/m2
08:02 46.9 °F /  8.3 °C 45 °F /  7.2 °C 30.1in /  1018.0hPa West 2mph /  3.2km/h 4mph /  6.4km/h 93% 0in /  0.0mm 114 W/m2
08:07 46.9 °F /  8.3 °C 45 °F /  7.2 °C 30.1in /  1018.0hPa Calm   2mph /  3.2km/h 93% 0in /  0.0mm 118 W/m2
08:12 47.1 °F /  8.4 °C 45 °F /  7.2 °C 30.1in /  1018.0hPa NW 0.9mph /  1.4km/h 3mph /  4.8km/h 92% 0in /  0.0mm 125 W/m2
08:17 47.5 °F /  8.6 °C 45.3 °F /  7.4 °C 30.1in /  1018.3hPa West 4mph /  6.4km/h 4mph /  6.4km/h 92% 0in /  0.0mm 123 W/m2
08:22 47.5 °F /  8.6 °C 45.3 °F /  7.4 °C 30.1in /  1018.3hPa WSW 2mph /  3.2km/h 3mph /  4.8km/h 92% 0in /  0.0mm 116 W/m2
08:27 47.7 °F /  8.7 °C 45.5 °F /  7.5 °C 30.1in /  1018.3hPa Calm   2mph /  3.2km/h 92% 0in /  0.0mm 116 W/m2
08:32 47.8 °F /  8.8 °C 45.3 °F /  7.4 °C 30.1in /  1018.3hPa Calm   3mph /  4.8km/h 91% 0in /  0.0mm 121 W/m2
08:37 48 °F /  8.9 °C 45.5 °F /  7.5 °C 30.1in /  1018.3hPa WNW 2mph /  3.2km/h 7mph /  11.3km/h 91% 0in /  0.0mm 139 W/m2
08:42 48.2 °F /  9 °C 45.7 °F /  7.6 °C 30.1in /  1018.3hPa SW 2mph /  3.2km/h 4mph /  6.4km/h 91% 0in /  0.0mm 158 W/m2
08:47 48.4 °F /  9.1 °C 45.9 °F /  7.7 °C 30.1in /  1018.3hPa NW 2.9mph /  4.7km/h 7mph /  11.3km/h 91% 0in /  0.0mm 156 W/m2
08:52 48.6 °F /  9.2 °C 45.7 °F /  7.6 °C 30.1in /  1018.6hPa NW 0.9mph /  1.4km/h 3mph /  4.8km/h 90% 0in /  0.0mm 169 W/m2
08:57 48.6 °F /  9.2 °C 45.7 °F /  7.6 °C 30.1in /  1018.6hPa WSW 6.9mph /  11.1km/h 8mph /  12.9km/h 90% 0in /  0.0mm 183 W/m2
09:02 48.7 °F /  9.3 °C 45.7 °F /  7.6 °C 30.1in /  1018.6hPa West 4mph /  6.4km/h 6mph /  9.7km/h 89% 0in /  0.0mm 181 W/m2
09:07 48.9 °F /  9.4 °C 45.9 °F /  7.7 °C 30.1in /  1018.6hPa WSW 0.9mph /  1.4km/h 8mph /  12.9km/h 89% 0in /  0.0mm 192 W/m2
09:12 48.9 °F /  9.4 °C 45.9 °F /  7.7 °C 30.1in /  1018.6hPa WSW 2.9mph /  4.7km/h 5mph /  8km/h 89% 0in /  0.0mm 197 W/m2
09:17 49.1 °F /  9.5 °C 45.7 °F /  7.6 °C 30.1in /  1018.6hPa NW 2.9mph /  4.7km/h 7mph /  11.3km/h 88% 0in /  0.0mm 199 W/m2
09:22 49.3 °F /  9.6 °C 45.9 °F /  7.7 °C 30.1in /  1018.6hPa West 0.9mph /  1.4km/h 8mph /  12.9km/h 88% 0in /  0.0mm 206 W/m2
09:27 49.5 °F /  9.7 °C 46 °F /  7.8 °C 30.1in /  1018.6hPa NW 4mph /  6.4km/h 7mph /  11.3km/h 88% 0in /  0.0mm 216 W/m2
09:32 49.6 °F /  9.8 °C 46.2 °F /  7.9 °C 30.1in /  1019.0hPa West 2mph /  3.2km/h 6mph /  9.7km/h 88% 0in /  0.0mm 220 W/m2
09:37 49.6 °F /  9.8 °C 45.9 °F /  7.7 °C 30.1in /  1019.0hPa WSW 2mph /  3.2km/h 3mph /  4.8km/h 87% 0in /  0.0mm 239 W/m2
09:42 50 °F /  10 °C 46.2 °F /  7.9 °C 30.1in /  1019.0hPa WSW 4mph /  6.4km/h 9mph /  14.5km/h 87% 0in /  0.0mm 243 W/m2
09:47 50.2 °F /  10.1 °C 46.4 °F /  8 °C 30.1in /  1019.0hPa Calm   3mph /  4.8km/h 87% 0in /  0.0mm 246 W/m2
09:52 50.4 °F /  10.2 °C 46.6 °F /  8.1 °C 30.1in /  1018.6hPa Calm   1mph /  1.6km/h 87% 0in /  0.0mm 244 W/m2
09:57 50.7 °F /  10.4 °C 46.8 °F /  8.2 °C 30.1in /  1018.6hPa WNW 2.9mph /  4.7km/h 7mph /  11.3km/h 86% 0in /  0.0mm 192 W/m2
10:02 50.9 °F /  10.5 °C 46.9 °F /  8.3 °C 30.1in /  1019.0hPa West 0.9mph /  1.4km/h 3mph /  4.8km/h 86% 0in /  0.0mm 260 W/m2
10:07 51.4 °F /  10.8 °C 47.1 °F /  8.4 °C 30.1in /  1019.0hPa West 8.1mph /  13km/h 13mph /  20.9km/h 85% 0in /  0.0mm 434 W/m2
10:12 52 °F /  11.1 °C 47.3 °F /  8.5 °C 30.1in /  1019.0hPa West 4mph /  6.4km/h 6mph /  9.7km/h 84% 0in /  0.0mm 485 W/m2
10:17 52.3 °F /  11.3 °C 47.3 °F /  8.5 °C 30.1in /  1019.0hPa NW 4mph /  6.4km/h 13mph /  20.9km/h 83% 0in /  0.0mm 343 W/m2
10:22 52.7 °F /  11.5 °C 47.1 °F /  8.4 °C 30.1in /  1019.0hPa North 4mph /  6.4km/h 8mph /  12.9km/h 81% 0in /  0.0mm 656 W/m2
10:27 53.2 °F /  11.8 °C 47.5 °F /  8.6 °C 30.1in /  1019.0hPa WNW 2.9mph /  4.7km/h 9mph /  14.5km/h 81% 0in /  0.0mm 752 W/m2
10:32 53.8 °F /  12.1 °C 47.5 °F /  8.6 °C 30.1in /  1019.0hPa NW 8.1mph /  13km/h 9mph /  14.5km/h 79% 0in /  0.0mm 775 W/m2
10:37 54.3 °F /  12.4 °C 48.6 °F /  9.2 °C 30.1in /  1019.0hPa NW 4.9mph /  7.9km/h 7mph /  11.3km/h 81% 0in /  0.0mm 854 W/m2
10:42 54.5 °F /  12.5 °C 47.8 °F /  8.8 °C 30.1in /  1019.0hPa SW 6.9mph /  11.1km/h 9mph /  14.5km/h 78% 0in /  0.0mm 348 W/m2
10:47 54.3 °F /  12.4 °C 48 °F /  8.9 °C 30.1in /  1019.0hPa West 6.9mph /  11.1km/h 7mph /  11.3km/h 79% 0in /  0.0mm 279 W/m2
10:52 54.3 °F /  12.4 °C 48 °F /  8.9 °C 30.1in /  1019.0hPa West 0.9mph /  1.4km/h 6mph /  9.7km/h 79% 0in /  0.0mm 251 W/m2
10:57 54.1 °F /  12.3 °C 47.5 °F /  8.6 °C 30.1in /  1019.0hPa WNW 4mph /  6.4km/h 10mph /  16.1km/h 78% 0in /  0.0mm 329 W/m2
11:02 54.3 °F /  12.4 °C 48 °F /  8.9 °C 30.1in /  1019.0hPa WSW 2mph /  3.2km/h 6mph /  9.7km/h 79% 0in /  0.0mm 332 W/m2
11:07 54.5 °F /  12.5 °C 48.2 °F /  9 °C 30.1in /  1019.0hPa West 6mph /  9.7km/h 7mph /  11.3km/h 79% 0in /  0.0mm 322 W/m2
11:12 54.7 °F /  12.6 °C 48 °F /  8.9 °C 30.1in /  1019.0hPa WNW 6.9mph /  11.1km/h 9mph /  14.5km/h 78% 0in /  0.0mm 257 W/m2
11:17 54.1 °F /  12.3 °C 47.5 °F /  8.6 °C 30.1in /  1019.3hPa West 8.1mph /  13km/h 9mph /  14.5km/h 78% 0in /  0.0mm 227 W/m2
11:22 54 °F /  12.2 °C 47.3 °F /  8.5 °C 30.1in /  1019.3hPa WNW 4mph /  6.4km/h 9mph /  14.5km/h 78% 0in /  0.0mm 251 W/m2
11:27 54 °F /  12.2 °C 48 °F /  8.9 °C 30.1in /  1019.3hPa NW 4mph /  6.4km/h 7mph /  11.3km/h 80% 0in /  0.0mm 308 W/m2
11:32 54.3 °F /  12.4 °C 47.7 °F /  8.7 °C 30.1in /  1019.3hPa WSW 6.9mph /  11.1km/h 12mph /  19.3km/h 78% 0in /  0.0mm 302 W/m2
11:37 54.3 °F /  12.4 °C 47.7 °F /  8.7 °C 30.1in /  1019.0hPa NW 4mph /  6.4km/h 7mph /  11.3km/h 78% 0in /  0.0mm 162 W/m2
11:42 54.5 °F /  12.5 °C 47.8 °F /  8.8 °C 30.1in /  1019.3hPa WSW 4.9mph /  7.9km/h 12mph /  19.3km/h 78% 0in /  0.0mm 137 W/m2
11:47 54.5 °F /  12.5 °C 48.2 °F /  9 °C 30.1in /  1019.3hPa WNW 2.9mph /  4.7km/h 4mph /  6.4km/h 79% 0in /  0.0mm 341 W/m2
11:52 54.7 °F /  12.6 °C 48.4 °F /  9.1 °C 30.1in /  1019.3hPa NW 2mph /  3.2km/h 7mph /  11.3km/h 79% 0in /  0.0mm 364 W/m2
11:57 55 °F /  12.8 °C 48.6 °F /  9.2 °C 30.1in /  1019.3hPa WSW 4mph /  6.4km/h 11mph /  17.7km/h 79% 0in /  0.0mm 448 W/m2
12:02 55.6 °F /  13.1 °C 48.9 °F /  9.4 °C 30.1in /  1019.3hPa NNW 0.9mph /  1.4km/h 7mph /  11.3km/h 78% 0in /  0.0mm 923 W/m2
12:07 56.1 °F /  13.4 °C 48.7 °F /  9.3 °C 30.1in /  1019.3hPa West 6mph /  9.7km/h 11mph /  17.7km/h 76% 0in /  0.0mm 192 W/m2
12:12 56.5 °F /  13.6 °C 48.9 °F /  9.4 °C 30.1in /  1019.0hPa WNW 4.9mph /  7.9km/h 8mph /  12.9km/h 76% 0in /  0.0mm 1000 W/m2
12:17 57.2 °F /  14 °C 48.6 °F /  9.2 °C 30.1in /  1019.3hPa West 6mph /  9.7km/h 11mph /  17.7km/h 73% 0in /  0.0mm 1021 W/m2
12:22 57.4 °F /  14.1 °C 48.4 °F /  9.1 °C 30.1in /  1019.0hPa West 6.9mph /  11.1km/h 12mph /  19.3km/h 72% 0in /  0.0mm 294 W/m2
12:27 57.7 °F /  14.3 °C 49.1 °F /  9.5 °C 30.1in /  1019.0hPa NW 2.9mph /  4.7km/h 5mph /  8km/h 73% 0in /  0.0mm 234 W/m2
12:32 58.1 °F /  14.5 °C 48.7 °F /  9.3 °C 30.1in /  1019.0hPa West 2.9mph /  4.7km/h 8mph /  12.9km/h 71% 0in /  0.0mm 997 W/m2
12:37 58.6 °F /  14.8 °C 48.2 °F /  9 °C 30.1in /  1019.0hPa West 10.1mph /  16.3km/h 11mph /  17.7km/h 68% 0in /  0.0mm 1109 W/m2
12:42 58.3 °F /  14.6 °C 48.2 °F /  9 °C 30.1in /  1019.0hPa West 2.9mph /  4.7km/h 9mph /  14.5km/h 69% 0in /  0.0mm 415 W/m2
12:47 58.6 °F /  14.8 °C 48.9 °F /  9.4 °C 30.1in /  1019.0hPa NNW 2mph /  3.2km/h 8mph /  12.9km/h 70% 0in /  0.0mm 1113 W/m2
12:52 59 °F /  15 °C 49.3 °F /  9.6 °C 30.1in /  1019.0hPa West 6.9mph /  11.1km/h 9mph /  14.5km/h 70% 0in /  0.0mm 309 W/m2
12:57 58.8 °F /  14.9 °C 48.7 °F /  9.3 °C 30.1in /  1019.3hPa WNW 4mph /  6.4km/h 10mph /  16.1km/h 69% 0in /  0.0mm 359 W/m2
13:02 58.8 °F /  14.9 °C 48.2 °F /  9 °C 30.1in /  1019.3hPa WNW 8.9mph /  14.3km/h 12mph /  19.3km/h 68% 0in /  0.0mm 237 W/m2
13:07 58.3 °F /  14.6 °C 48.2 °F /  9 °C 30.1in /  1019.3hPa WSW 4mph /  6.4km/h 13mph /  20.9km/h 69% 0in /  0.0mm 251 W/m2
13:12 57.9 °F /  14.4 °C 48.2 °F /  9 °C 30.1in /  1019.3hPa NW 4mph /  6.4km/h 9mph /  14.5km/h 70% 0in /  0.0mm 271 W/m2
13:17 57.9 °F /  14.4 °C 48.6 °F /  9.2 °C 30.1in /  1019.3hPa WNW 8.1mph /  13km/h 9mph /  14.5km/h 71% 0in /  0.0mm 169 W/m2
13:22 57.7 °F /  14.3 °C 48.4 °F /  9.1 °C 30.1in /  1019.3hPa WNW 4.9mph /  7.9km/h 10mph /  16.1km/h 71% 0in /  0.0mm 246 W/m2
13:27 57.9 °F /  14.4 °C 49.3 °F /  9.6 °C 30.1in /  1019.3hPa WNW 6.9mph /  11.1km/h 10mph /  16.1km/h 73% 0in /  0.0mm 1018 W/m2
13:32 57.9 °F /  14.4 °C 48.2 °F /  9 °C 30.1in /  1019.3hPa WNW 6.9mph /  11.1km/h 12mph /  19.3km/h 70% 0in /  0.0mm 977 W/m2
13:37 58.5 °F /  14.7 °C 49.5 °F /  9.7 °C 30.1in /  1019.0hPa West 6mph /  9.7km/h 9mph /  14.5km/h 72% 0in /  0.0mm 951 W/m2
13:42 59 °F /  15 °C 49.6 °F /  9.8 °C 30.1in /  1019.0hPa NNW 6mph /  9.7km/h 12mph /  19.3km/h 71% 0in /  0.0mm 967 W/m2
13:47 59.4 °F /  15.2 °C 50 °F /  10 °C 30.1in /  1019.0hPa NNW 4.9mph /  7.9km/h 11mph /  17.7km/h 71% 0in /  0.0mm 949 W/m2
13:52 59.5 °F /  15.3 °C 50.2 °F /  10.1 °C 30.1in /  1019.0hPa WNW 11mph /  17.7km/h 11mph /  17.7km/h 71% 0in /  0.0mm 988 W/m2
13:57 59.7 °F /  15.4 °C 49.5 °F /  9.7 °C 30.1in /  1019.0hPa West 8.1mph /  13km/h 14mph /  22.5km/h 69% 0in /  0.0mm 1125 W/m2
14:02 60.3 °F /  15.7 °C 50 °F /  10 °C 30.1in /  1019.0hPa NW 6mph /  9.7km/h 10mph /  16.1km/h 69% 0in /  0.0mm 997 W/m2
14:07 60.8 °F /  16 °C 50.5 °F /  10.3 °C 30.1in /  1019.0hPa West 6.9mph /  11.1km/h 14mph /  22.5km/h 69% 0in /  0.0mm 1069 W/m2
14:12 61.3 °F /  16.3 °C 49.5 °F /  9.7 °C 30.1in /  1019.0hPa West 8.1mph /  13km/h 8mph /  12.9km/h 65% 0in /  0.0mm 1157 W/m2
14:17 61.9 °F /  16.6 °C 49.6 °F /  9.8 °C 30.1in /  1019.0hPa WNW 8.1mph /  13km/h 14mph /  22.5km/h 64% 0in /  0.0mm 1290 W/m2
14:22 62.4 °F /  16.9 °C 50.5 °F /  10.3 °C 30.1in /  1019.0hPa West 6.9mph /  11.1km/h 9mph /  14.5km/h 65% 0in /  0.0mm 956 W/m2
14:27 62.4 °F /  16.9 °C 49.3 °F /  9.6 °C 30.1in /  1019.0hPa West 4mph /  6.4km/h 12mph /  19.3km/h 62% 0in /  0.0mm 895 W/m2
14:32 61.9 °F /  16.6 °C 48.7 °F /  9.3 °C 30.1in /  1019.0hPa NW 4.9mph /  7.9km/h 12mph /  19.3km/h 62% 0in /  0.0mm 304 W/m2
14:37 61.5 °F /  16.4 °C 48.7 °F /  9.3 °C 30.1in /  1019.0hPa WNW 12.1mph /  19.5km/h 12mph /  19.3km/h 63% 0in /  0.0mm 304 W/m2
14:42 61.5 °F /  16.4 °C 48.4 °F /  9.1 °C 30.1in /  1019.0hPa NW 11mph /  17.7km/h 12mph /  19.3km/h 62% 0in /  0.0mm 1299 W/m2
14:47 61.9 °F /  16.6 °C 49.1 °F /  9.5 °C 30.1in /  1019.0hPa SW 6.9mph /  11.1km/h 10mph /  16.1km/h 63% 0in /  0.0mm 1299 W/m2
14:52 61.9 °F /  16.6 °C 48.2 °F /  9 °C 30.1in /  1019.3hPa NW 6mph /  9.7km/h 12mph /  19.3km/h 61% 0in /  0.0mm 431 W/m2
14:57 61.5 °F /  16.4 °C 48.4 °F /  9.1 °C 30.1in /  1019.0hPa West 4mph /  6.4km/h 11mph /  17.7km/h 62% 0in /  0.0mm 577 W/m2
15:02 61.9 °F /  16.6 °C 49.1 °F /  9.5 °C 30.1in /  1019.0hPa WNW 10.1mph /  16.3km/h 11mph /  17.7km/h 63% 0in /  0.0mm 816 W/m2
15:07 61.5 °F /  16.4 °C 48.7 °F /  9.3 °C 30.1in /  1019.0hPa SW 4.9mph /  7.9km/h 11mph /  17.7km/h 63% 0in /  0.0mm 531 W/m2
15:12 61.5 °F /  16.4 °C 48.7 °F /  9.3 °C 30.1in /  1019.3hPa WNW 8.1mph /  13km/h 14mph /  22.5km/h 63% 0in /  0.0mm 476 W/m2
15:17 61.2 °F /  16.2 °C 48 °F /  8.9 °C 30.1in /  1019.0hPa NW 13mph /  20.9km/h 15mph /  24.1km/h 62% 0in /  0.0mm 503 W/m2
15:22 61.2 °F /  16.2 °C 48.4 °F /  9.1 °C 30.1in /  1019.3hPa NNW 6mph /  9.7km/h 10mph /  16.1km/h 63% 0in /  0.0mm 541 W/m2
15:27 61.3 °F /  16.3 °C 49.1 °F /  9.5 °C 30.1in /  1019.3hPa West 6.9mph /  11.1km/h 10mph /  16.1km/h 64% 0in /  0.0mm 1018 W/m2
15:32 62.2 °F /  16.8 °C 48.6 °F /  9.2 °C 30.1in /  1019.0hPa West 4mph /  6.4km/h 9mph /  14.5km/h 61% 0in /  0.0mm 1004 W/m2
15:37 63 °F /  17.2 °C 48.9 °F /  9.4 °C 30.1in /  1019.3hPa WNW 4mph /  6.4km/h 10mph /  16.1km/h 60% 0in /  0.0mm 833 W/m2
15:42 63.1 °F /  17.3 °C 49.1 °F /  9.5 °C 30.1in /  1019.0hPa WNW 6mph /  9.7km/h 10mph /  16.1km/h 60% 0in /  0.0mm 960 W/m2
15:47 63.1 °F /  17.3 °C 48.2 °F /  9 °C 30.1in /  1019.3hPa West 6mph /  9.7km/h 13mph /  20.9km/h 58% 0in /  0.0mm 471 W/m2
15:52 63.3 °F /  17.4 °C 48.4 °F /  9.1 °C 30.1in /  1019.3hPa West 8.9mph /  14.3km/h 12mph /  19.3km/h 58% 0in /  0.0mm 990 W/m2
15:57 63.1 °F /  17.3 °C 47.1 °F /  8.4 °C 30.1in /  1019.3hPa West 6.9mph /  11.1km/h 15mph /  24.1km/h 56% 0in /  0.0mm 213 W/m2
16:02 62.8 °F /  17.1 °C 47.3 °F /  8.5 °C 30.1in /  1019.3hPa NW 4mph /  6.4km/h 12mph /  19.3km/h 57% 0in /  0.0mm 1000 W/m2
16:07 63 °F /  17.2 °C 48.4 °F /  9.1 °C 30.1in /  1019.3hPa North 2mph /  3.2km/h 8mph /  12.9km/h 59% 0in /  0.0mm 986 W/m2
16:12 63.9 °F /  17.7 °C 48.4 °F /  9.1 °C 30.1in /  1019.3hPa WSW 6.9mph /  11.1km/h 12mph /  19.3km/h 57% 0in /  0.0mm 925 W/m2
16:17 64 °F /  17.8 °C 47.5 °F /  8.6 °C 30.1in /  1019.3hPa NNE 4mph /  6.4km/h 15mph /  24.1km/h 55% 0in /  0.0mm 951 W/m2
16:22 64.2 °F /  17.9 °C 48.2 °F /  9 °C 30.1in /  1019.3hPa West 6mph /  9.7km/h 10mph /  16.1km/h 56% 0in /  0.0mm 954 W/m2
16:27 63.9 °F /  17.7 °C 48.4 °F /  9.1 °C 30.1in /  1019.3hPa WSW 10.1mph /  16.3km/h 12mph /  19.3km/h 57% 0in /  0.0mm 585 W/m2
16:32 63.5 °F /  17.5 °C 47.5 °F /  8.6 °C 30.1in /  1019.3hPa NW 4mph /  6.4km/h 12mph /  19.3km/h 56% 0in /  0.0mm 840 W/m2
16:37 63.7 °F /  17.6 °C 47.7 °F /  8.7 °C 30.1in /  1019.3hPa West 11mph /  17.7km/h 17mph /  27.4km/h 56% 0in /  0.0mm 777 W/m2
16:42 63.7 °F /  17.6 °C 48.2 °F /  9 °C 30.1in /  1019.3hPa West 6.9mph /  11.1km/h 14mph /  22.5km/h 57% 0in /  0.0mm 780 W/m2
16:47 62.8 °F /  17.1 °C 47.3 °F /  8.5 °C 30.1in /  1019.3hPa WNW 4mph /  6.4km/h 16mph /  25.7km/h 57% 0in /  0.0mm 420 W/m2
16:52 62.8 °F /  17.1 °C 49.1 °F /  9.5 °C 30.1in /  1019.3hPa NW 12.1mph /  19.5km/h 12mph /  19.3km/h 61% 0in /  0.0mm 752 W/m2
16:57 63 °F /  17.2 °C 48.4 °F /  9.1 °C 30.1in /  1019.3hPa WNW 10.1mph /  16.3km/h 15mph /  24.1km/h 59% 0in /  0.0mm 740 W/m2
17:02 63.1 °F /  17.3 °C 49.1 °F /  9.5 °C 30.1in /  1019.3hPa WNW 4.9mph /  7.9km/h 11mph /  17.7km/h 60% 0in /  0.0mm 761 W/m2
17:07 63.1 °F /  17.3 °C 48.6 °F /  9.2 °C 30.1in /  1019.3hPa NW 4mph /  6.4km/h 15mph /  24.1km/h 59% 0in /  0.0mm 824 W/m2
17:12 63.1 °F /  17.3 °C 48.2 °F /  9 °C 30.1in /  1019.3hPa NW 8.9mph /  14.3km/h 13mph /  20.9km/h 58% 0in /  0.0mm 311 W/m2
17:17 62.8 °F /  17.1 °C 48.2 °F /  9 °C 30.1in /  1019.3hPa NW 4mph /  6.4km/h 9mph /  14.5km/h 59% 0in /  0.0mm 557 W/m2
17:22 62.6 °F /  17 °C 47.7 °F /  8.7 °C 30.1in /  1019.6hPa WNW 4mph /  6.4km/h 12mph /  19.3km/h 58% 0in /  0.0mm 673 W/m2
17:27 63 °F /  17.2 °C 48.4 °F /  9.1 °C 30.1in /  1019.6hPa NNW 8.1mph /  13km/h 11mph /  17.7km/h 59% 0in /  0.0mm 673 W/m2
17:32 63.1 °F /  17.3 °C 48.6 °F /  9.2 °C 30.1in /  1019.6hPa WNW 2.9mph /  4.7km/h 8mph /  12.9km/h 59% 0in /  0.0mm 385 W/m2
17:37 63 °F /  17.2 °C 47.5 °F /  8.6 °C 30.1in /  1019.6hPa NNW 8.1mph /  13km/h 10mph /  16.1km/h 57% 0in /  0.0mm 251 W/m2
17:42 62.8 °F /  17.1 °C 46.9 °F /  8.3 °C 30.1in /  1019.3hPa NW 4mph /  6.4km/h 8mph /  12.9km/h 56% 0in /  0.0mm 278 W/m2
17:47 62.4 °F /  16.9 °C 46.9 °F /  8.3 °C 30.1in /  1019.6hPa WNW 8.1mph /  13km/h 11mph /  17.7km/h 57% 0in /  0.0mm 225 W/m2
17:52 62.2 °F /  16.8 °C 46.8 °F /  8.2 °C 30.1in /  1019.6hPa NW 2.9mph /  4.7km/h 8mph /  12.9km/h 57% 0in /  0.0mm 220 W/m2
17:57 62.4 °F /  16.9 °C 48.4 °F /  9.1 °C 30.1in /  1019.6hPa West 10.1mph /  16.3km/h 11mph /  17.7km/h 60% 0in /  0.0mm 227 W/m2
18:02 62.1 °F /  16.7 °C 48 °F /  8.9 °C 30.1in /  1019.6hPa WSW 4mph /  6.4km/h 8mph /  12.9km/h 60% 0in /  0.0mm 213 W/m2
18:07 62.1 °F /  16.7 °C 48.4 °F /  9.1 °C 30.1in /  1019.6hPa West 4mph /  6.4km/h 11mph /  17.7km/h 61% 0in /  0.0mm 221 W/m2
18:12 62.1 °F /  16.7 °C 48.4 °F /  9.1 °C 30.1in /  1019.6hPa WNW 2.9mph /  4.7km/h 11mph /  17.7km/h 61% 0in /  0.0mm 287 W/m2
18:17 62.1 °F /  16.7 °C 48.4 °F /  9.1 °C 30.1in /  1019.6hPa WNW 4mph /  6.4km/h 11mph /  17.7km/h 61% 0in /  0.0mm 172 W/m2
18:22 61.9 °F /  16.6 °C 48.7 °F /  9.3 °C 30.1in /  1019.6hPa WNW 2.9mph /  4.7km/h 7mph /  11.3km/h 62% 0in /  0.0mm 125 W/m2
18:27 61.5 °F /  16.4 °C 48.7 °F /  9.3 °C 30.1in /  1019.6hPa WNW 4mph /  6.4km/h 7mph /  11.3km/h 63% 0in /  0.0mm 125 W/m2
18:32 61.7 °F /  16.5 °C 48.9 °F /  9.4 °C 30.1in /  1019.3hPa WNW 6mph /  9.7km/h 7mph /  11.3km/h 63% 0in /  0.0mm 181 W/m2
18:37 61.9 °F /  16.6 °C 48.7 °F /  9.3 °C 30.1in /  1019.3hPa NW 2.9mph /  4.7km/h 10mph /  16.1km/h 62% 0in /  0.0mm 171 W/m2
18:42 62.1 °F /  16.7 °C 48.4 °F /  9.1 °C 30.1in /  1019.3hPa WNW 2mph /  3.2km/h 4mph /  6.4km/h 61% 0in /  0.0mm 162 W/m2
18:47 62.1 °F /  16.7 °C 48.9 °F /  9.4 °C 30.1in /  1019.3hPa WNW 4mph /  6.4km/h 10mph /  16.1km/h 62% 0in /  0.0mm 153 W/m2
18:52 62.2 °F /  16.8 °C 49.5 °F /  9.7 °C 30.1in /  1019.3hPa WSW 6mph /  9.7km/h 7mph /  11.3km/h 63% 0in /  0.0mm 380 W/m2
18:58 62.2 °F /  16.8 °C 49.1 °F /  9.5 °C 30.1in /  1019.3hPa WNW 2.9mph /  4.7km/h 4mph /  6.4km/h 62% 0in /  0.0mm 130 W/m2
19:03 62.2 °F /  16.8 °C 48.2 °F /  9 °C 30.1in /  1019.3hPa West 6mph /  9.7km/h 9mph /  14.5km/h 60% 0in /  0.0mm 320 W/m2
19:08 62.8 °F /  17.1 °C 48.2 °F /  9 °C 30.1in /  1019.3hPa WNW 4mph /  6.4km/h 6mph /  9.7km/h 59% 0in /  0.0mm 169 W/m2
19:13 63 °F /  17.2 °C 49.3 °F /  9.6 °C 30.1in /  1019.3hPa WNW 2mph /  3.2km/h 10mph /  16.1km/h 61% 0in /  0.0mm 297 W/m2
19:18 62.8 °F /  17.1 °C 49.1 °F /  9.5 °C 30.1in /  1019.3hPa WSW 4mph /  6.4km/h 8mph /  12.9km/h 61% 0in /  0.0mm 120 W/m2
19:23 62.1 °F /  16.7 °C 48.4 °F /  9.1 °C 30.1in /  1019.3hPa West 6mph /  9.7km/h 10mph /  16.1km/h 61% 0in /  0.0mm 111 W/m2
19:28 61.7 °F /  16.5 °C 48.6 °F /  9.2 °C 30.1in /  1019.3hPa West 2.9mph /  4.7km/h 7mph /  11.3km/h 62% 0in /  0.0mm 102 W/m2
19:33 61.3 °F /  16.3 °C 48.6 °F /  9.2 °C 30.1in /  1019.3hPa WNW 2mph /  3.2km/h 9mph /  14.5km/h 63% 0in /  0.0mm 84 W/m2
19:38 61.3 °F /  16.3 °C 49.5 °F /  9.7 °C 30.1in /  1019.3hPa West 2mph /  3.2km/h 4mph /  6.4km/h 65% 0in /  0.0mm 76 W/m2
19:43 61.2 °F /  16.2 °C 49.3 °F /  9.6 °C 30.1in /  1019.3hPa WNW 4mph /  6.4km/h 6mph /  9.7km/h 65% 0in /  0.0mm 72 W/m2
19:48 61 °F /  16.1 °C 49.5 °F /  9.7 °C 30.1in /  1019.3hPa NNW 4mph /  6.4km/h 8mph /  12.9km/h 66% 0in /  0.0mm 54 W/m2
19:53 60.6 °F /  15.9 °C 49.3 °F /  9.6 °C 30.1in /  1019.3hPa WSW 4mph /  6.4km/h 6mph /  9.7km/h 66% 0in /  0.0mm 44 W/m2
19:58 60.4 °F /  15.8 °C 49.5 °F /  9.7 °C 30.1in /  1019.3hPa WNW 2.9mph /  4.7km/h 4mph /  6.4km/h 67% 0in /  0.0mm 37 W/m2
20:03 60.3 °F /  15.7 °C 49.3 °F /  9.6 °C 30.1in /  1019.3hPa WSW 4mph /  6.4km/h 8mph /  12.9km/h 67% 0in /  0.0mm 40 W/m2
20:08 60.3 °F /  15.7 °C 49.6 °F /  9.8 °C 30.1in /  1019.3hPa WNW 2mph /  3.2km/h 6mph /  9.7km/h 68% 0in /  0.0mm 44 W/m2
20:13 60.1 °F /  15.6 °C 49.5 °F /  9.7 °C 30.1in /  1019.6hPa WNW 2mph /  3.2km/h 8mph /  12.9km/h 68% 0in /  0.0mm 120 W/m2
20:18 60.3 °F /  15.7 °C 49.6 °F /  9.8 °C 30.1in /  1019.6hPa West 6mph /  9.7km/h 7mph /  11.3km/h 68% 0in /  0.0mm 70 W/m2
20:23 60.3 °F /  15.7 °C 50 °F /  10 °C 30.1in /  1019.6hPa WSW 4mph /  6.4km/h 4mph /  6.4km/h 69% 0in /  0.0mm 125 W/m2
20:28 60.4 °F /  15.8 °C 50.2 °F /  10.1 °C 30.1in /  1019.6hPa West 2mph /  3.2km/h 7mph /  11.3km/h 69% 0in /  0.0mm 47 W/m2
20:33 60.4 °F /  15.8 °C 50.2 °F /  10.1 °C 30.1in /  1019.6hPa NW 4.9mph /  7.9km/h 7mph /  11.3km/h 69% 0in /  0.0mm 74 W/m2
20:38 60.4 °F /  15.8 °C 50.2 °F /  10.1 °C 30.1in /  1019.6hPa WNW 2.9mph /  4.7km/h 5mph /  8km/h 69% 0in /  0.0mm 72 W/m2
20:43 60.3 °F /  15.7 °C 50 °F /  10 °C 30.1in /  1019.6hPa WSW 6.9mph /  11.1km/h 7mph /  11.3km/h 69% 0in /  0.0mm 63 W/m2
20:48 60.3 °F /  15.7 °C 50 °F /  10 °C 30.1in /  1019.6hPa WNW 4mph /  6.4km/h 4mph /  6.4km/h 69% 0in /  0.0mm 53 W/m2
20:53 60.1 °F /  15.6 °C 50.2 °F /  10.1 °C 30.1in /  1019.6hPa West 2mph /  3.2km/h 6mph /  9.7km/h 70% 0in /  0.0mm 51 W/m2
20:58 60.1 °F /  15.6 °C 50.2 °F /  10.1 °C 30.1in /  1019.6hPa West 2.9mph /  4.7km/h 6mph /  9.7km/h 70% 0in /  0.0mm 44 W/m2
21:03 59.7 °F /  15.4 °C 50 °F /  10 °C 30.1in /  1019.6hPa WSW 2.9mph /  4.7km/h 3mph /  4.8km/h 70% 0in /  0.0mm 21 W/m2
21:08 59.4 °F /  15.2 °C 50 °F /  10 °C 30.1in /  1019.6hPa West 2mph /  3.2km/h 6mph /  9.7km/h 71% 0in /  0.0mm 14 W/m2
21:13 58.8 °F /  14.9 °C 49.5 °F /  9.7 °C 30.1in /  1019.6hPa WNW 2.9mph /  4.7km/h 4mph /  6.4km/h 71% 0in /  0.0mm 11 W/m2
21:18 58.5 °F /  14.7 °C 49.5 °F /  9.7 °C 30.1in /  1019.6hPa West 2.9mph /  4.7km/h 4mph /  6.4km/h 72% 0in /  0.0mm 7 W/m2
21:23 57.9 °F /  14.4 °C 49.3 °F /  9.6 °C 30.1in /  1019.6hPa WSW 2.9mph /  4.7km/h 7mph /  11.3km/h 73% 0in /  0.0mm 5 W/m2
21:28 57.7 °F /  14.3 °C 49.1 °F /  9.5 °C 30.1in /  1019.6hPa West 2mph /  3.2km/h 3mph /  4.8km/h 73% 0in /  0.0mm 0 W/m2
21:33 57.4 °F /  14.1 °C 48.7 °F /  9.3 °C 30.1in /  1019.6hPa Calm   7mph /  11.3km/h 73% 0in /  0.0mm 0 W/m2
21:38 57 °F /  13.9 °C 48.7 °F /  9.3 °C 30.1in /  1020.0hPa West 2.9mph /  4.7km/h 3mph /  4.8km/h 74% 0in /  0.0mm 0 W/m2
21:43 56.8 °F /  13.8 °C 48.6 °F /  9.2 °C 30.1in /  1020.0hPa West 2.9mph /  4.7km/h 4mph /  6.4km/h 74% 0in /  0.0mm 0 W/m2
21:48 56.8 °F /  13.8 °C 48.6 °F /  9.2 °C 30.1in /  1020.0hPa West 2.9mph /  4.7km/h 4mph /  6.4km/h 74% 0in /  0.0mm 0 W/m2
21:53 56.7 °F /  13.7 °C 48.4 °F /  9.1 °C 30.1in /  1020.0hPa West 2mph /  3.2km/h 2mph /  3.2km/h 74% 0in /  0.0mm 0 W/m2
21:58 56.5 °F /  13.6 °C 48.7 °F /  9.3 °C 30.1in /  1020.0hPa Calm   1mph /  1.6km/h 75% 0in /  0.0mm 0 W/m2
22:03 56.1 °F /  13.4 °C 48.7 °F /  9.3 °C 30.1in /  1020.0hPa West 2mph /  3.2km/h 2mph /  3.2km/h 76% 0in /  0.0mm 0 W/m2
22:08 55.8 °F /  13.2 °C 48.7 °F /  9.3 °C 30.1in /  1020.3hPa West 2mph /  3.2km/h 4mph /  6.4km/h 77% 0in /  0.0mm 0 W/m2
22:13 55.6 °F /  13.1 °C 48.6 °F /  9.2 °C 30.1in /  1020.3hPa West 0.9mph /  1.4km/h 2mph /  3.2km/h 77% 0in /  0.0mm 0 W/m2
22:18 55.6 °F /  13.1 °C 48.6 °F /  9.2 °C 30.1in /  1020.3hPa WNW 2mph /  3.2km/h 4mph /  6.4km/h 77% 0in /  0.0mm 0 W/m2
22:23 55.6 °F /  13.1 °C 48.6 °F /  9.2 °C 30.1in /  1020.3hPa West 2mph /  3.2km/h 3mph /  4.8km/h 77% 0in /  0.0mm 0 W/m2
22:28 55.4 °F /  13 °C 48.7 °F /  9.3 °C 30.1in /  1020.3hPa West 0.9mph /  1.4km/h 1mph /  1.6km/h 78% 0in /  0.0mm 0 W/m2
22:33 55.2 °F /  12.9 °C 48.6 °F /  9.2 °C 30.1in /  1020.7hPa Calm   3mph /  4.8km/h 78% 0in /  0.0mm 0 W/m2
22:38 54.9 °F /  12.7 °C 48.6 °F /  9.2 °C 30.1in /  1020.7hPa West 0.9mph /  1.4km/h 1mph /  1.6km/h 79% 0in /  0.0mm 0 W/m2
22:43 54.3 °F /  12.4 °C 48.2 °F /  9 °C 30.1in /  1020.7hPa West 0.9mph /  1.4km/h 1mph /  1.6km/h 80% 0in /  0.0mm 0 W/m2
22:48 54 °F /  12.2 °C 48.2 °F /  9 °C 30.1in /  1020.7hPa Calm   1mph /  1.6km/h 81% 0in /  0.0mm 0 W/m2
22:53 53.6 °F /  12 °C 48.2 °F /  9 °C 30.1in /  1020.7hPa West 2mph /  3.2km/h 2mph /  3.2km/h 82% 0in /  0.0mm 0 W/m2
22:58 53.2 °F /  11.8 °C 48.2 °F /  9 °C 30.1in /  1020.7hPa Calm   2mph /  3.2km/h 83% 0in /  0.0mm 0 W/m2
23:03 53.1 °F /  11.7 °C 48 °F /  8.9 °C 30.1in /  1020.7hPa West 0.9mph /  1.4km/h 1mph /  1.6km/h 83% 0in /  0.0mm 0 W/m2
23:08 52.9 °F /  11.6 °C 48.2 °F /  9 °C 30.1in /  1020.7hPa Calm     84% 0in /  0.0mm 0 W/m2
23:13 52.5 °F /  11.4 °C 48.2 °F /  9 °C 30.1in /  1020.7hPa West 0.9mph /  1.4km/h 2mph /  3.2km/h 85% 0in /  0.0mm 0 W/m2
23:18 52.3 °F /  11.3 °C 48 °F /  8.9 °C 30.1in /  1020.7hPa West 0.9mph /  1.4km/h 2mph /  3.2km/h 85% 0in /  0.0mm 0 W/m2
23:23 52.2 °F /  11.2 °C 48 °F /  8.9 °C 30.1in /  1020.7hPa West 0.9mph /  1.4km/h 2mph /  3.2km/h 86% 0in /  0.0mm 0 W/m2
23:28 52 °F /  11.1 °C 47.8 °F /  8.8 °C 30.2in /  1021.0hPa WNW 0.9mph /  1.4km/h 3mph /  4.8km/h 86% 0in /  0.0mm 0 W/m2
23:33 52.3 °F /  11.3 °C 48.2 °F /  9 °C 30.2in /  1021.0hPa WNW 2mph /  3.2km/h 2mph /  3.2km/h 86% 0in /  0.0mm 0 W/m2
23:38 52.3 °F /  11.3 °C 48.2 °F /  9 °C 30.2in /  1021.0hPa WNW 2mph /  3.2km/h 2mph /  3.2km/h 86% 0in /  0.0mm 0 W/m2
23:43 52.3 °F /  11.3 °C 48.2 °F /  9 °C 30.2in /  1021.0hPa West 2mph /  3.2km/h 3mph /  4.8km/h 86% 0in /  0.0mm 0 W/m2
23:48 52.3 °F /  11.3 °C 48.2 °F /  9 °C 30.2in /  1021.0hPa West 0.9mph /  1.4km/h 3mph /  4.8km/h 86% 0in /  0.0mm 0 W/m2
23:53 52.3 °F /  11.3 °C 48 °F /  8.9 °C 30.2in /  1021.0hPa West 2mph /  3.2km/h 3mph /  4.8km/h 85% 0in /  0.0mm 0 W/m2
23:58 52.5 °F /  11.4 °C 48.2 °F /  9 °C 30.2in /  1021.0hPa WSW 2mph /  3.2km/h 4mph /  6.4km/h 85% 0in /  0.0mm 0 W/m2
Juneau County Weather
Compliments of Weather Underground - 4 mb